Time;durP1;ratioP1;P1;durP2;ratioP2;P2;SDS_P1;SDS_P2;PMS_P1;PMS_P2;Temp;Humidity;BMP_temperature;BMP_pressure;BME280_temperature;BME280_humidity;BME280_pressure;Samples;Min_cycle;Max_cycle;Signal;HPM_P1;HPM_P2
2023/02/03 00:00:18;;;;;;;16.40;10.20;;;;;;;2.37;86.92;98808.73;106716;1266;73916;-37
2023/02/03 00:02:46;;;;;;;14.80;10.50;;;;;;;2.38;86.56;98808.76;106708;1266;61444;-37
2023/02/03 00:05:15;;;;;;;19.90;10.80;;;;;;;2.36;86.30;98808.85;106710;1268;60506;-37
2023/02/03 00:07:43;;;;;;;17.30;10.80;;;;;;;2.34;86.02;98811.34;106711;1265;72783;-37
2023/02/03 00:10:12;;;;;;;16.40;9.80;;;;;;;2.31;85.42;98809.76;106711;1265;69762;-37
2023/02/03 00:12:42;;;;;;;12.80;9.20;;;;;;;2.34;85.33;98811.89;106793;1266;73599;-37
2023/02/03 00:15:11;;;;;;;13.10;9.10;;;;;;;2.38;84.99;98811.15;106016;1265;1003079;-37
2023/02/03 00:17:40;;;;;;;14.80;10.10;;;;;;;2.35;84.71;98803.13;106732;1266;61230;-37
2023/02/03 00:20:10;;;;;;;19.90;11.50;;;;;;;2.41;84.69;98810.34;106786;1265;73953;-37
2023/02/03 00:22:39;;;;;;;15.10;10.70;;;;;;;2.43;84.55;98813.88;106811;1266;69076;-37
2023/02/03 00:25:07;;;;;;;19.20;10.80;;;;;;;2.44;84.32;98812.52;106755;1266;73323;-37
2023/02/03 00:27:36;;;;;;;15.20;9.70;;;;;;;2.50;83.89;98821.45;106782;1266;62415;-37
2023/02/03 00:30:05;;;;;;;13.30;9.60;;;;;;;2.62;83.50;98820.16;106930;1263;61540;-38
2023/02/03 00:32:33;;;;;;;13.70;9.90;;;;;;;2.69;83.04;98821.67;106958;1262;73007;-37
2023/02/03 00:35:04;;;;;;;16.00;10.00;;;;;;;2.70;82.68;98817.04;106898;1263;69654;-37
2023/02/03 00:37:33;;;;;;;;;;;;;;;2.68;82.36;98820.48;107201;1257;73675;-38
2023/02/03 00:40:01;;;;;;;14.70;10.20;;;;;;;2.61;82.48;98821.51;107206;1257;60755;-38
2023/02/03 00:42:33;;;;;;;15.70;9.50;;;;;;;2.57;82.16;98820.36;107168;1258;61222;-38
2023/02/03 00:45:01;;;;;;;13.00;8.90;;;;;;;2.63;81.90;98825.41;107067;1257;74363;-38
2023/02/03 00:47:30;;;;;;;13.10;9.10;;;;;;;2.72;81.68;98826.60;107129;1262;67989;-38
2023/02/03 00:50:00;;;;;;;12.70;8.90;;;;;;;2.78;81.65;98823.57;107199;1257;72609;-38
2023/02/03 00:52:28;;;;;;;17.10;10.00;;;;;;;2.77;81.19;98827.36;107193;1257;60723;-38
2023/02/03 00:54:57;;;;;;;14.50;10.20;;;;;;;2.74;81.07;98828.92;107189;1257;61227;-38
2023/02/03 00:57:25;;;;;;;16.00;10.80;;;;;;;2.73;81.04;98834.69;107159;1258;74125;-38
2023/02/03 00:59:54;;;;;;;16.80;10.90;;;;;;;2.73;80.97;98832.27;107157;1257;69773;-38
2023/02/03 01:02:23;;;;;;;13.10;9.30;;;;;;;2.79;80.53;98833.54;107044;1259;73593;-38
2023/02/03 01:04:53;;;;;;;16.80;10.10;;;;;;;2.89;80.15;98830.60;107146;1257;60502;-38
2023/02/03 01:07:21;;;;;;;14.90;9.90;;;;;;;2.94;79.66;98830.80;107054;1257;61167;-38
2023/02/03 01:09:50;;;;;;;16.30;10.20;;;;;;;2.93;79.30;98833.36;107143;1258;73950;-38
2023/02/03 01:12:19;;;;;;;15.90;10.50;;;;;;;2.89;79.13;98832.00;107165;1258;69727;-38
2023/02/03 01:14:48;;;;;;;14.60;10.20;;;;;;;2.85;79.12;98840.10;107110;1261;74044;-38
2023/02/03 01:17:17;;;;;;;16.00;10.50;;;;;;;2.79;79.26;98842.46;107166;1257;62560;-38
2023/02/03 01:19:45;;;;;;;14.90;9.40;;;;;;;2.75;79.25;98847.70;107129;1257;61677;-38
2023/02/03 01:22:13;;;;;;;15.60;9.60;;;;;;;2.68;79.26;98841.91;107189;1257;74239;-38
2023/02/03 01:24:42;;;;;;;14.00;9.70;;;;;;;2.69;79.20;98843.11;107023;1259;69857;-38
2023/02/03 01:27:12;;;;;;;13.80;10.90;;;;;;;2.65;79.31;98838.03;107137;1262;73575;-38
2023/02/03 01:29:40;;;;;;;13.90;10.10;;;;;;;2.59;79.59;98837.73;107016;1257;59513;-38
2023/02/03 01:32:09;;;;;;;15.40;10.70;;;;;;;2.53;79.49;98834.40;107118;1257;61489;-38
2023/02/03 01:34:37;;;;;;;14.60;10.10;;;;;;;2.44;79.52;98829.52;107169;1257;74295;-38
2023/02/03 01:37:06;;;;;;;15.30;10.20;;;;;;;2.41;79.78;98829.21;107220;1257;69675;-38
2023/02/03 01:39:35;;;;;;;15.40;9.70;;;;;;;2.44;79.69;98831.82;107055;1264;73936;-38
2023/02/03 01:42:04;;;;;;;14.60;10.20;;;;;;;2.46;79.85;98830.60;107013;1259;61557;-38
2023/02/03 01:44:42;;;;;;;15.50;9.30;;;;;;;2.44;80.12;98832.89;107008;1259;61196;-38
2023/02/03 01:47:48;;;;;;;15.00;9.80;;;;;;;2.44;80.11;98830.27;107106;1258;73585;-37
2023/02/03 01:50:19;;;;;;;13.20;9.40;;;;;;;2.40;80.26;98830.19;107168;1259;69972;-37
2023/02/03 01:52:53;;;;;;;15.00;9.50;;;;;;;2.38;80.24;98828.92;107127;1258;73682;-37
2023/02/03 01:55:26;;;;;;;12.70;9.30;;;;;;;2.44;80.09;98830.05;107167;1262;60880;-38
2023/02/03 01:57:57;;;;;;;13.40;9.50;;;;;;;2.51;80.17;98829.27;107102;1259;61111;-37
2023/02/03 02:00:29;;;;;;;16.50;10.20;;;;;;;2.56;80.26;98827.81;107026;1263;74350;-37
2023/02/03 02:02:58;;;;;;;16.20;10.30;;;;;;;2.57;80.06;98826.30;107084;1258;68624;-37
2023/02/03 02:05:31;;;;;;;14.70;9.80;;;;;;;2.57;79.84;98825.39;107001;1259;73530;-36
2023/02/03 02:08:00;;;;;;;16.60;9.80;;;;;;;2.56;79.85;98824.96;107105;1257;62078;-37
2023/02/03 02:10:29;;;;;;;14.30;9.10;;;;;;;2.54;79.66;98820.61;107048;1259;61604;-37
2023/02/03 02:12:58;;;;;;;;;;;;;;;2.52;79.27;98819.30;107151;1258;74152;-37
2023/02/03 02:15:48;;;;;;;15.10;9.20;;;;;;;2.42;79.43;98826.66;107060;1259;69936;-37
2023/02/03 02:18:35;;;;;;;17.80;10.10;;;;;;;2.36;80.06;98822.84;107098;1258;73876;-37
2023/02/03 02:21:33;;;;;;;14.50;9.70;;;;;;;2.36;79.89;98837.98;107083;1260;60760;-36
2023/02/03 02:24:20;;;;;;;16.70;10.60;;;;;;;2.33;80.11;98839.04;107136;1258;61614;-37
2023/02/03 02:27:32;;;;;;;15.20;10.10;;;;;;;2.21;80.05;98832.48;107069;1259;73981;-37
2023/02/03 02:30:38;;;;;;;15.50;9.70;;;;;;;2.28;80.22;98843.02;107109;1259;70173;-38
2023/02/03 02:33:30;;;;;;;15.20;10.60;;;;;;;2.30;80.22;98841.44;107005;1260;72737;-37
2023/02/03 02:36:20;;;;;;;17.30;10.90;;;;;;;2.26;80.26;98840.45;107143;1259;60770;-37
2023/02/03 02:39:16;;;;;;;11.90;8.60;;;;;;;2.23;80.48;98844.49;107060;1259;61546;-38
2023/02/03 02:41:52;;;;;;;16.20;11.20;;;;;;;2.20;80.83;98841.48;107081;1258;74367;-37
2023/02/03 02:44:24;;;;;;;16.80;11.10;;;;;;;2.22;80.98;98841.33;107072;1259;69615;-37
2023/02/03 02:46:55;;;;;;;14.90;10.90;;;;;;;2.30;80.56;98843.05;107088;1259;71538;-38
2023/02/03 02:49:29;;;;;;;16.10;10.20;;;;;;;2.36;80.27;98843.75;107097;1262;59741;-38
2023/02/03 02:51:59;;;;;;;16.10;11.80;;;;;;;2.33;80.24;98840.48;107124;1262;61425;-38
2023/02/03 02:54:31;;;;;;;17.30;12.10;;;;;;;2.26;80.19;98840.19;107092;1262;74545;-37
2023/02/03 02:57:00;;;;;;;17.10;13.00;;;;;;;2.19;80.50;98842.90;107086;1258;67872;-38
2023/02/03 02:59:29;;;;;;;18.40;13.40;;;;;;;2.17;80.67;98841.27;107089;1263;73565;-38
2023/02/03 03:01:57;;;;;;;19.60;12.40;;;;;;;2.19;80.87;98842.91;107080;1259;62509;-37
2023/02/03 03:04:27;;;;;;;13.40;9.70;;;;;;;2.27;80.65;98849.19;107165;1259;61500;-45
2023/02/03 03:07:07;;;;;;;12.30;8.60;;;;;;;2.28;80.51;98848.05;107045;1259;74279;-38
2023/02/03 03:09:41;;;;;;;16.20;11.90;;;;;;;2.19;80.64;98851.37;107086;1259;70001;-38
2023/02/03 03:12:30;;;;;;;18.90;12.00;;;;;;;2.10;80.83;98856.83;107018;1259;73563;-38
2023/02/03 03:15:01;;;;;;;19.30;12.70;;;;;;;2.04;81.19;98855.61;107079;1260;62083;-38
2023/02/03 03:17:36;;;;;;;18.80;12.30;;;;;;;2.04;81.37;98855.91;107103;1262;59801;-38
2023/02/03 03:20:14;;;;;;;17.40;12.30;;;;;;;2.09;81.47;98853.39;107104;1262;74305;-38
2023/02/03 03:22:45;;;;;;;15.20;11.00;;;;;;;2.07;81.53;98851.63;107120;1259;69896;-38
2023/02/03 03:25:18;;;;;;;17.00;12.10;;;;;;;2.03;81.91;98847.25;107131;1259;73866;-38
2023/02/03 03:27:53;;;;;;;16.50;12.10;;;;;;;2.00;82.02;98842.23;107073;1258;60721;-38
2023/02/03 03:30:23;;;;;;;14.30;10.90;;;;;;;1.95;82.25;98843.60;107087;1260;61506;-38
2023/02/03 03:32:51;;;;;;;;;;;;;;;1.94;82.13;98838.29;107129;1259;75293;-38
2023/02/03 03:35:20;;;;;;;18.10;10.90;;;;;;;1.92;82.44;98840.94;107131;1259;67900;-38
2023/02/03 03:37:53;;;;;;;17.50;10.70;;;;;;;1.89;82.72;98841.51;107043;1259;72904;-38
2023/02/03 03:40:31;;;;;;;15.00;11.10;;;;;;;1.88;82.72;98845.10;107108;1258;60419;-38
2023/02/03 03:43:02;;;;;;;22.20;12.50;;;;;;;1.83;82.78;98846.82;107075;1259;60497;-38
2023/02/03 03:45:40;;;;;;;19.70;12.50;;;;;;;1.79;83.23;98837.98;107014;1263;74004;-38
2023/02/03 03:48:16;;;;;;;18.80;11.60;;;;;;;1.81;83.27;98837.60;107036;1258;68467;-38
2023/02/03 03:50:47;;;;;;;19.00;12.70;;;;;;;1.86;82.96;98840.54;107123;1258;73567;-38
2023/02/03 03:53:15;;;;;;;18.90;13.40;;;;;;;1.83;83.12;98844.52;107038;1259;60493;-38
2023/02/03 03:55:47;;;;;;;17.00;12.30;;;;;;;1.79;83.48;98841.51;107065;1258;61498;-38
2023/02/03 03:58:24;;;;;;;18.20;13.00;;;;;;;1.77;83.60;98842.70;107120;1259;72578;-38
2023/02/03 04:00:54;;;;;;;20.70;12.90;;;;;;;1.77;83.54;98841.41;107069;1259;69838;-38
2023/02/03 04:03:30;;;;;;;23.30;14.00;;;;;;;1.81;83.76;98841.20;107068;1261;73762;-38
2023/02/03 04:05:59;;;;;;;18.70;12.50;;;;;;;1.83;83.89;98848.39;107068;1262;60761;-38
2023/02/03 04:08:28;;;;;;;18.40;13.20;;;;;;;1.83;84.02;98849.77;107045;1258;61550;-38
2023/02/03 04:10:56;;;;;;;18.90;12.90;;;;;;;1.83;84.16;98846.50;107062;1257;74751;-38
2023/02/03 04:13:24;;;;;;;19.60;12.70;;;;;;;1.85;84.12;98853.67;107117;1259;69909;-38
2023/02/03 04:15:54;;;;;;;18.50;12.60;;;;;;;1.88;83.94;98856.19;107066;1258;74032;-38
2023/02/03 04:18:23;;;;;;;24.50;13.20;;;;;;;1.91;84.20;98854.88;107091;1258;60739;-38
2023/02/03 04:20:51;;;;;;;22.10;14.40;;;;;;;1.92;83.90;98853.08;107085;1260;61450;-38
2023/02/03 04:23:20;;;;;;;17.10;13.00;;;;;;;1.90;83.79;98858.70;107062;1258;75053;-38
2023/02/03 04:25:48;;;;;;;19.70;13.50;;;;;;;1.89;83.85;98858.30;107098;1259;69686;-37
2023/02/03 04:28:17;;;;;;;19.80;13.30;;;;;;;1.91;84.08;98863.11;107036;1259;73924;-37
2023/02/03 04:30:45;;;;;;;19.70;14.10;;;;;;;1.91;84.08;98865.77;107102;1258;60780;-37
2023/02/03 04:33:14;;;;;;;24.10;15.40;;;;;;;1.91;84.14;98869.68;107070;1260;61552;-37
2023/02/03 04:35:42;;;;;;;20.90;14.00;;;;;;;1.89;84.38;98867.98;107081;1261;75138;-37
2023/02/03 04:38:11;;;;;;;21.90;13.70;;;;;;;1.89;84.29;98868.05;107070;1259;70325;-38
2023/02/03 04:40:39;;;;;;;19.70;13.60;;;;;;;1.90;84.16;98869.23;107096;1261;73697;-38
2023/02/03 04:43:07;;;;;;;20.20;13.40;;;;;;;1.87;84.27;98866.07;107159;1262;60577;-37
2023/02/03 04:45:36;;;;;;;21.70;14.60;;;;;;;1.84;84.77;98868.13;107088;1259;61315;-38
2023/02/03 04:48:05;;;;;;;14.60;10.20;;;;;;;1.83;84.81;98868.71;107064;1258;75005;-37
2023/02/03 04:50:33;;;;;;;18.00;13.20;;;;;;;1.87;84.83;98871.11;107099;1259;69626;-38
2023/02/03 04:53:02;;;;;;;21.00;13.50;;;;;;;1.92;84.75;98873.70;107072;1259;73536;-37
2023/02/03 04:55:31;;;;;;;19.20;12.70;;;;;;;1.96;84.80;98870.09;107022;1258;61291;-37
2023/02/03 04:58:00;;;;;;;24.10;14.80;;;;;;;1.99;84.81;98872.52;107098;1259;61656;-37
2023/02/03 05:00:28;;;;;;;20.70;13.20;;;;;;;2.00;84.64;98873.90;107072;1260;74692;-37
2023/02/03 05:02:58;;;;;;;21.70;13.80;;;;;;;2.02;84.65;98872.23;107115;1260;69760;-37
2023/02/03 05:05:26;;;;;;;21.30;13.60;;;;;;;2.07;84.57;98879.17;107121;1260;73622;-37
2023/02/03 05:07:56;;;;;;;17.60;10.30;;;;;;;2.11;84.48;98879.16;107070;1262;61650;-37
2023/02/03 05:10:24;;;;;;;21.80;14.10;;;;;;;2.12;84.49;98876.54;107090;1262;61215;-37
2023/02/03 05:12:54;;;;;;;22.60;13.90;;;;;;;2.14;84.40;98878.30;107065;1259;74877;-38
2023/02/03 05:15:23;;;;;;;22.90;14.00;;;;;;;2.17;84.27;98881.69;107097;1258;69899;-38
2023/02/03 05:17:52;;;;;;;20.90;12.80;;;;;;;2.25;84.01;98883.92;107081;1259;73898;-37
2023/02/03 05:20:20;;;;;;;20.30;13.40;;;;;;;2.25;83.85;98885.31;107089;1257;60617;-37
2023/02/03 05:22:50;;;;;;;27.20;15.30;;;;;;;2.23;83.82;98892.70;107062;1259;61270;-37
2023/02/03 05:25:18;;;;;;;22.20;14.50;;;;;;;2.19;83.80;98892.16;106346;1258;1003158;-38
2023/02/03 05:27:46;;;;;;;22.60;14.00;;;;;;;2.17;83.99;98891.61;107070;1261;68833;-37
2023/02/03 05:30:15;;;;;;;19.00;12.70;;;;;;;2.15;83.91;98885.56;107088;1257;73652;-37
2023/02/03 05:32:44;;;;;;;21.80;14.00;;;;;;;2.24;83.81;98895.66;107066;1260;60344;-37
2023/02/03 05:35:12;;;;;;;24.60;14.30;;;;;;;2.20;83.70;98898.17;107109;1262;61504;-37
2023/02/03 08:15:51;;;;;;;3.60;3.10;;;;;;;1.87;85.21;99054.98;104975;1283;613033;-40
2023/02/03 08:18:20;;;;;;;4.60;3.50;;;;;;;2.31;83.02;99059.66;106546;1270;210842;-40
2023/02/03 08:20:49;;;;;;;4.40;3.80;;;;;;;2.24;83.09;99062.48;106720;1266;61494;-40
2023/02/03 08:23:17;;;;;;;4.10;3.40;;;;;;;2.20;81.88;99062.44;106697;1267;71891;-39
2023/02/03 08:25:50;;;;;;;3.80;3.40;;;;;;;2.19;81.65;99065.77;106708;1267;69952;-40
2023/02/03 08:28:19;;;;;;;4.50;3.70;;;;;;;2.15;81.26;99064.76;106728;1266;72088;-40
2023/02/03 08:30:48;;;;;;;4.50;3.20;;;;;;;2.09;81.22;99067.06;106710;1266;59774;-40
2023/02/03 08:33:18;;;;;;;5.80;3.50;;;;;;;2.05;81.28;99066.23;106726;1267;61449;-40
2023/02/03 08:35:51;;;;;;;4.80;3.70;;;;;;;2.08;81.23;99069.89;106698;1267;73428;-40
2023/02/03 08:38:20;;;;;;;4.30;3.50;;;;;;;2.14;80.81;99072.02;107131;1260;68251;-40
2023/02/03 08:40:49;;;;;;;4.00;3.40;;;;;;;2.14;80.48;99072.65;107117;1260;72406;-40
2023/02/03 08:43:18;;;;;;;4.20;3.70;;;;;;;2.09;80.35;99073.08;107123;1259;59637;-41
2023/02/03 08:45:46;;;;;;;4.70;3.70;;;;;;;2.06;80.44;99070.43;107180;1260;61280;-41
2023/02/03 08:48:15;;;;;;;5.00;4.10;;;;;;;2.07;80.24;99073.92;107117;1259;74240;-40
2023/02/03 08:50:50;;;;;;;4.50;3.70;;;;;;;2.11;79.77;99075.73;107084;1259;69652;-40
2023/02/03 08:53:19;;;;;;;6.10;4.30;;;;;;;2.13;79.51;99081.69;107041;1262;73861;-40
2023/02/03 08:55:49;;;;;;;5.20;3.90;;;;;;;2.10;79.09;99082.98;107136;1260;60600;-40
2023/02/03 08:58:18;;;;;;;4.40;3.50;;;;;;;2.05;78.78;99082.66;107173;1260;60559;-41
2023/02/03 09:00:48;;;;;;;5.30;4.10;;;;;;;2.02;79.01;99083.52;107171;1260;73822;-40
2023/02/03 09:03:17;;;;;;;;;;;;;;;2.07;79.21;99084.14;107154;1260;71002;-40
2023/02/03 09:05:45;;;;;;;5.10;4.00;;;;;;;2.09;79.23;99084.15;107118;1260;73883;-40
2023/02/03 09:08:16;;;;;;;6.10;4.00;;;;;;;2.08;79.07;99077.48;107140;1259;60583;-40
2023/02/03 09:10:45;;;;;;;5.40;4.20;;;;;;;2.06;78.51;99078.02;107154;1259;61533;-40
2023/02/03 09:13:13;;;;;;;5.10;4.30;;;;;;;2.03;77.79;99076.84;107189;1259;73976;-41
2023/02/03 09:15:42;;;;;;;4.90;4.10;;;;;;;1.99;77.87;99072.10;107137;1260;69952;-41
2023/02/03 09:18:11;;;;;;;3.30;2.50;;;;;;;2.05;77.63;99071.84;107119;1262;73811;-41
2023/02/03 09:20:40;;;;;;;4.10;3.60;;;;;;;2.10;77.19;99071.01;107020;1260;60918;-40
2023/02/03 09:23:09;;;;;;;5.30;3.90;;;;;;;2.12;77.61;99073.02;107190;1259;60228;-41
2023/02/03 09:25:38;;;;;;;5.50;4.30;;;;;;;2.13;76.87;99074.13;107077;1258;73932;-40
2023/02/03 09:28:07;;;;;;;4.70;4.10;;;;;;;2.07;76.29;99072.10;107046;1262;69800;-40
2023/02/03 09:30:35;;;;;;;5.10;3.70;;;;;;;2.09;76.70;99073.87;107105;1260;72882;-40
2023/02/03 09:33:04;;;;;;;4.80;3.90;;;;;;;2.20;76.66;99074.84;107100;1260;60456;-41
2023/02/03 09:35:32;;;;;;;5.30;3.80;;;;;;;2.31;76.35;99069.08;107148;1260;61662;-41
2023/02/03 09:38:01;;;;;;;5.20;3.60;;;;;;;2.34;75.13;99065.30;107184;1258;74228;-40
2023/02/03 09:40:34;;;;;;;4.00;3.50;;;;;;;2.27;74.62;99068.03;107139;1260;69693;-41
2023/02/03 09:43:44;;;;;;;3.70;3.20;;;;;;;2.20;74.46;99068.95;107508;1254;71702;-41
2023/02/03 09:46:43;;;;;;;4.00;3.20;;;;;;;2.21;74.12;99067.91;107471;1254;62267;-41
2023/02/03 09:49:20;;;;;;;3.80;3.30;;;;;;;2.23;74.33;99065.84;107353;1254;61663;-40
2023/02/03 09:51:58;;;;;;;5.50;3.60;;;;;;;2.17;74.82;99064.83;107406;1254;74305;-40
2023/02/03 09:54:42;;;;;;;5.30;3.90;;;;;;;2.17;75.02;99067.18;107490;1254;69957;-40
2023/02/03 09:57:20;;;;;;;4.50;3.80;;;;;;;2.15;75.03;99064.01;107469;1254;74086;-40
2023/02/03 09:59:49;;;;;;;4.70;3.70;;;;;;;2.11;75.23;99060.66;107501;1254;61940;-41
2023/02/03 10:02:32;;;;;;;5.70;3.70;;;;;;;2.14;75.33;99063.19;107485;1254;61561;-40
2023/02/03 10:05:12;;;;;;;5.60;3.70;;;;;;;2.20;75.13;99060.90;107423;1255;74064;-40
2023/02/03 10:08:00;;;;;;;5.00;3.80;;;;;;;2.23;75.10;99058.73;107341;1254;68848;-40
2023/02/03 10:10:31;;;;;;;4.80;3.80;;;;;;;2.27;75.04;99057.33;107370;1254;73820;-40
2023/02/03 10:13:23;;;;;;;4.90;3.70;;;;;;;2.36;74.88;99053.55;107405;1254;60760;-41
2023/02/03 10:15:59;;;;;;;5.30;3.50;;;;;;;2.54;73.98;99053.95;107469;1254;60904;-40
2023/02/03 10:18:39;;;;;;;4.00;3.00;;;;;;;2.69;72.31;99055.67;107463;1254;74303;-40
2023/02/03 10:21:20;;;;;;;4.10;3.00;;;;;;;2.77;70.91;99057.03;107480;1254;70377;-40
2023/02/03 10:23:50;;;;;;;4.30;3.20;;;;;;;2.78;70.97;99056.05;107513;1254;71685;-40
2023/02/03 10:26:23;;;;;;;3.70;3.10;;;;;;;2.78;70.13;99054.86;107404;1254;60777;-40
2023/02/03 10:28:55;;;;;;;3.40;2.90;;;;;;;2.75;69.57;99055.09;107510;1254;59529;-40
2023/02/03 10:31:26;;;;;;;4.20;3.00;;;;;;;2.68;69.27;99061.44;107514;1258;72443;-40
2023/02/03 10:34:12;;;;;;;4.40;2.80;;;;;;;2.60;69.38;99060.24;107466;1254;67544;-40
2023/02/03 10:36:46;;;;;;;4.40;2.60;;;;;;;2.58;69.61;99056.70;107469;1254;73756;-41
2023/02/03 10:39:20;;;;;;;4.10;3.10;;;;;;;2.61;69.55;99054.95;107502;1254;60675;-41
2023/02/03 10:41:49;;;;;;;3.10;2.80;;;;;;;2.66;69.95;99050.86;107468;1254;61404;-41
2023/02/03 10:44:17;;;;;;;3.70;2.90;;;;;;;2.70;69.50;99047.39;107479;1254;73269;-41
2023/02/03 10:46:46;;;;;;;3.30;2.50;;;;;;;2.73;68.93;99048.19;107490;1254;70280;-41
2023/02/03 10:49:15;;;;;;;3.40;2.50;;;;;;;2.74;69.20;99048.88;107486;1254;72880;-41
2023/02/03 10:51:47;;;;;;;3.40;2.80;;;;;;;2.79;69.26;99039.42;107485;1254;62059;-41
2023/02/03 10:54:32;;;;;;;3.20;2.50;;;;;;;2.96;68.79;99039.73;107420;1254;60016;-41
2023/02/03 10:57:03;;;;;;;4.80;2.80;;;;;;;3.19;68.40;99039.64;107466;1254;73171;-41
2023/02/03 10:59:35;;;;;;;2.90;2.30;;;;;;;3.34;68.39;99041.21;107521;1254;69893;-41
2023/02/03 11:02:10;;;;;;;3.30;2.20;;;;;;;3.42;66.19;99035.89;107465;1254;73961;-41
2023/02/03 11:04:39;;;;;;;2.50;2.00;;;;;;;3.40;65.73;99033.66;107467;1254;59967;-41
2023/02/03 11:07:24;;;;;;;3.60;2.20;;;;;;;3.38;65.71;99028.88;107378;1254;61555;-41
2023/02/03 11:09:52;;;;;;;2.80;1.90;;;;;;;3.38;64.78;99028.82;107547;1254;74220;-41
2023/02/03 11:12:21;;;;;;;2.30;2.00;;;;;;;3.33;64.08;99028.30;107449;1254;68800;-41
2023/02/03 11:14:51;;;;;;;3.60;2.30;;;;;;;3.25;63.33;99029.85;107388;1254;73884;-39
2023/02/03 11:17:25;;;;;;;3.20;2.10;;;;;;;3.15;63.10;99023.85;107386;1254;59500;-40
2023/02/03 11:20:00;;;;;;;2.60;2.10;;;;;;;3.03;62.73;99028.02;107314;1254;60641;-40
2023/02/03 11:22:29;;;;;;;3.50;2.00;;;;;;;2.98;63.12;99027.61;107521;1254;72380;-40
2023/02/03 11:24:58;;;;;;;3.40;2.10;;;;;;;2.95;64.15;99027.22;107517;1254;69922;-40
2023/02/03 11:27:28;;;;;;;1.90;1.70;;;;;;;2.87;63.65;99021.91;107518;1254;73880;-40
2023/02/03 11:30:16;;;;;;;3.10;1.90;;;;;;;2.86;63.40;99029.65;107519;1254;59718;-40
2023/02/03 11:32:45;;;;;;;2.20;2.00;;;;;;;2.73;62.90;99026.17;107386;1254;61550;-40
2023/02/03 11:35:24;;;;;;;2.90;2.10;;;;;;;2.56;63.29;99023.21;107445;1254;71959;-40
2023/02/03 11:37:56;;;;;;;2.90;2.20;;;;;;;2.41;63.86;99025.21;107503;1254;68915;-41
2023/02/03 11:40:26;;;;;;;3.90;2.50;;;;;;;2.32;64.94;99025.55;107411;1254;73852;-40
2023/02/03 11:42:55;;;;;;;2.40;2.00;;;;;;;2.28;65.43;99027.88;107372;1254;60777;-40
2023/02/03 11:45:29;;;;;;;2.20;2.00;;;;;;;2.26;65.57;99026.59;107471;1259;61574;-40
2023/02/03 11:48:09;;;;;;;3.20;2.10;;;;;;;2.30;65.81;99022.03;107501;1254;74266;-40
2023/02/03 11:50:44;;;;;;;3.30;1.80;;;;;;;2.28;65.62;99018.46;107474;1254;69973;-40
2023/02/03 11:53:27;;;;;;;2.50;2.10;;;;;;;2.25;65.90;99014.53;107532;1254;73506;-40
2023/02/03 11:56:22;;;;;;;3.20;2.40;;;;;;;2.26;66.07;99021.84;107477;1254;60517;-40
2023/02/03 11:58:53;;;;;;;2.90;2.40;;;;;;;2.23;65.89;99017.86;107235;1254;60367;-40
2023/02/03 12:01:57;;;;;;;3.00;2.10;;;;;;;2.17;66.47;99017.70;107434;1259;74226;-40
2023/02/03 12:05:08;;;;;;;3.30;2.50;;;;;;;2.17;66.69;99012.28;107347;1254;69759;-40
2023/02/03 12:07:46;;;;;;;4.80;2.00;;;;;;;2.15;67.30;99010.20;107277;1254;73900;-40
2023/02/03 12:10:50;;;;;;;3.30;2.50;;;;;;;2.20;67.40;99008.73;107383;1258;62078;-40
2023/02/03 12:13:21;;;;;;;3.70;2.30;;;;;;;2.31;67.88;99008.84;107384;1254;61494;-40
2023/02/03 12:16:09;;;;;;;2.90;2.30;;;;;;;2.38;67.72;99008.80;107423;1254;74348;-41
2023/02/03 12:19:08;;;;;;;5.00;2.70;;;;;;;2.42;67.21;99011.19;107340;1254;69936;-45
2023/02/03 12:21:40;;;;;;;5.10;2.90;;;;;;;2.39;67.45;99014.48;107327;1254;73879;-41
2023/02/03 12:24:12;;;;;;;3.90;2.70;;;;;;;2.36;67.46;99018.70;107508;1255;60894;-41
2023/02/03 12:26:56;;;;;;;3.70;2.60;;;;;;;2.34;67.78;99019.19;107511;1254;61569;-41
2023/02/03 12:29:26;;;;;;;3.50;2.70;;;;;;;2.31;67.87;99020.67;106729;1254;1016325;-41
2023/02/03 12:32:16;;;;;;;4.70;2.70;;;;;;;2.31;67.96;99028.02;107472;1254;68966;-41
2023/02/03 12:35:09;;;;;;;;;;;;;;;2.35;67.66;99023.33;107472;1254;73976;-41
2023/02/03 12:38:12;;;;;;;4.30;2.60;;;;;;;2.30;67.35;99024.23;107477;1259;60943;-41
2023/02/03 12:40:48;;;;;;;3.90;2.40;;;;;;;2.24;66.12;99025.79;107477;1255;60594;-41
2023/02/03 12:43:25;;;;;;;2.80;2.10;;;;;;;2.16;66.07;99026.54;107478;1254;75096;-41
2023/02/03 12:45:59;;;;;;;2.90;2.00;;;;;;;2.06;66.13;99029.50;107456;1258;68764;-41
2023/02/03 12:48:44;;;;;;;2.70;2.10;;;;;;;1.94;66.25;99029.33;107497;1254;73147;-41
2023/02/03 12:51:15;;;;;;;3.60;2.20;;;;;;;1.84;66.70;99029.34;107456;1254;60818;-41
2023/02/03 12:53:47;;;;;;;2.20;1.60;;;;;;;1.80;66.72;99027.75;107371;1254;60499;-41
2023/02/03 12:56:23;;;;;;;2.70;2.00;;;;;;;1.77;66.29;99027.94;107434;1254;75031;-41
2023/02/03 12:58:55;;;;;;;2.70;1.90;;;;;;;1.68;66.53;99028.81;107419;1259;69587;-41
2023/02/03 13:01:29;;;;;;;3.80;2.00;;;;;;;1.60;66.93;99025.66;107409;1254;73607;-41
2023/02/03 13:04:17;;;;;;;3.00;2.10;;;;;;;1.50;67.30;99020.85;107414;1254;60433;-41
2023/02/03 13:07:04;;;;;;;3.50;2.30;;;;;;;1.42;67.75;99025.77;107483;1254;61529;-41
2023/02/03 13:09:58;;;;;;;2.80;2.00;;;;;;;1.32;68.20;99026.46;107521;1254;73915;-41
2023/02/03 13:12:30;;;;;;;4.10;2.00;;;;;;;1.33;68.45;99032.48;107453;1254;69948;-41
2023/02/03 13:15:23;;;;;;;3.70;2.20;;;;;;;1.36;68.38;99031.19;107462;1259;72123;-41
2023/02/03 13:18:00;;;;;;;3.50;2.10;;;;;;;1.36;68.77;99035.29;107458;1254;60677;-41
2023/02/03 13:20:30;;;;;;;2.90;2.30;;;;;;;1.33;68.97;99035.52;107472;1254;61625;-41
2023/02/03 13:22:59;;;;;;;;;;;;;;;1.36;69.23;99038.16;107499;1254;76062;-41
2023/02/03 13:25:53;;;;;;;3.10;2.10;;;;;;;1.32;69.37;99036.39;107520;1254;69843;-41
2023/02/03 13:28:25;;;;;;;3.20;2.10;;;;;;;1.27;69.63;99033.90;107472;1254;73883;-41
2023/02/03 13:31:16;;;;;;;3.20;2.40;;;;;;;1.25;70.02;99029.52;107440;1255;62463;-41
2023/02/03 13:33:55;;;;;;;4.40;2.50;;;;;;;1.31;69.99;99032.36;107487;1254;61509;-41
2023/02/03 13:36:43;;;;;;;4.40;2.90;;;;;;;1.34;69.79;99033.63;107500;1254;75188;-41
2023/02/03 13:39:33;;;;;;;4.10;2.60;;;;;;;1.32;69.45;99034.67;107516;1254;69980;-41
2023/02/03 16:14:35;;;;;;;3.50;2.20;;;;;;;0.70;69.89;99031.90;105211;1280;613718;-38
2023/02/03 16:17:04;;;;;;;5.00;2.70;;;;;;;1.00;67.63;99030.15;106473;1269;195868;-36
2023/02/03 16:19:39;;;;;;;;;;;;;;;0.81;67.40;99028.95;106843;1264;60690;-38
2023/02/03 16:22:28;;;;;;;4.20;2.30;;;;;;;0.64;68.19;99032.06;106102;1263;1003583;-37
2023/02/03 16:25:35;;;;;;;3.80;2.50;;;;;;;0.54;67.62;99031.48;106814;1264;68942;-37
2023/02/03 16:50:52;;;;;;;2.70;2.10;;;;;;;0.22;66.63;99028.46;106748;1264;73068;-37
2023/02/03 16:53:30;;;;;;;3.30;2.20;;;;;;;0.22;66.77;99030.04;106767;1264;69898;-37
2023/02/03 16:56:01;;;;;;;4.10;2.50;;;;;;;0.24;66.61;99030.39;106754;1264;72699;-37
2023/02/03 16:58:30;;;;;;;5.90;3.30;;;;;;;0.24;66.52;99030.23;106818;1264;59653;-37
2023/02/03 17:01:01;;;;;;;5.40;2.50;;;;;;;0.21;66.15;99029.71;106766;1264;60082;-37
2023/02/03 17:03:31;;;;;;;4.00;2.60;;;;;;;0.16;66.19;99032.33;106792;1264;71785;-37
2023/02/03 17:06:05;;;;;;;4.20;2.40;;;;;;;0.13;66.01;99029.63;106773;1264;69739;-37
2023/02/03 17:08:34;;;;;;;4.10;2.70;;;;;;;0.08;66.27;99028.39;106862;1264;73859;-37
2023/02/03 17:11:16;;;;;;;3.40;2.40;;;;;;;0.05;66.45;99025.76;106863;1264;62141;-37
2023/02/03 17:13:45;;;;;;;2.80;2.10;;;;;;;0.02;66.50;99015.04;106804;1267;61440;-37
2023/02/03 17:16:15;;;;;;;4.20;2.80;;;;;;;0.08;66.28;99018.70;106820;1267;74200;-37
2023/02/03 17:18:45;;;;;;;4.50;2.80;;;;;;;0.05;66.12;99017.38;106817;1265;69939;-37
2023/02/03 17:21:19;;;;;;;4.70;2.50;;;;;;;0.01;66.10;99012.59;106770;1267;73909;-37
2023/02/03 17:23:47;;;;;;;5.10;2.50;;;;;;;-0.02;66.38;99011.98;106883;1265;60568;-37
2023/02/03 17:26:15;;;;;;;3.80;2.40;;;;;;;-0.04;66.24;99011.33;106825;1267;61095;-37
2023/02/03 17:28:44;;;;;;;4.80;2.80;;;;;;;-0.07;66.14;99012.13;106850;1266;74123;-37
2023/02/03 17:31:17;;;;;;;4.10;2.80;;;;;;;-0.11;65.88;99014.30;106786;1266;69819;-37